CZFM/ZFM METAR and TAF weather

Enter ICAO airport designator
Station Type Date Time Source
CZFM METAR 2018/10/22 16:00 UTC NOAA

CZFM 221600Z 18004KT 35SM FEW076 M09/M10 A2971 RMK AC1 SLP066


Station Type Date Time Source
CZFM Decoded METAR 2018/10/22 16:00 UTC NOAA

Fort Mcpherson Airport, Canada (CZFM) 67-24N 134-51W
Oct 22, 2018 - 12:00 PM EDT / 2018.10.22 1600 UTC
Wind: from the S (180 degrees) at 5 MPH (4 KT):0
Visibility: 35 mile(s):0
Sky conditions: mostly clear
Temperature: 15 F (-9 C)
Windchill: 6 F (-14 C):1
Dew Point: 14 F (-10 C)
Relative Humidity: 92%
Pressure (altimeter): 29.71 in. Hg (1006 hPa)
ob: CZFM 221600Z 18004KT 35SM FEW076 M09/M10 A2971 RMK AC1 SLP066
cycle: 16

Station Type Date Time Source
CZFM TAF 2018/10/22 15:00 UTC NOAA

TAF CZFM 221449Z 2215/2223 16005KT P6SM FEW015
TEMPO 2215/2219 BKN015
FM221900 16005KT P6SM SCT150
RMK NXT FCST BY 221900Z


Example: see airport list